Other Surface Observations
Issued by NWS Great Falls, MT

Home | Current Version | Previous Version | Text Only | Print | Product List | Glossary On
Versions: 1 2 3 4 5 6 7 8 9 10 11 12 13 14 15 16 17 18 19 20 21 22 23 24 25 26 27 28 29 30 31 32 33 34 35 36 37 38 39 40 41 42 43 44 45 46 47 48 49 50
000
SXUS55 KTFX 230008
OSOTFX
AREA AWOS OBSERVATIONS
NATIONAL WEATHER SERVICE GREAT FALLS MT
0505 PM MST SAT NOV 22 2014

METAR KPWD 230000Z AUTO 23006KT 10SM 04/M02 A2922 RMK PLENTYWOOD
METAR KPO1 230000Z AUTO 10SM 05/01 A2926 RMK POPLAR
METAR K1S3 230000Z AUTO 23010KT 10SM 10/00 A2938 RMK FORSYTH
METAR KS71 230000Z AUTO 26018G29KT 10SM 07/M03 A2931 RMK CHINOOK
METAR K6S0 230000Z AUTO 25019G27KT 10SM 04/M09 A2951 RMK BIG TIMBER
METAR K79S 230000Z AUTO 22008KT 10SM 06/M06 A2945 RMK FORT BENTON
METAR KEKS 230000Z AUTO 11008KT 10SM 01/M09 A2970 RMK ENNIS
METAR K6S5 230000Z AUTO 02007KT 10SM 04/M06 A2969 RMK HAMILTON
METAR KS59 230000Z AUTO 34004KT 10SM 06/M06 A2968 RMK LIBBY
METAR K88M 230000Z AUTO 00000KT 10SM 05/M06 A2962 RMK EUREKA



USA.gov is the U.S. government's official web portal to all federal, state and local government web resources and services.